Terminal Aerodrome Forecast
Issued by NWS

Home | Current Version | Previous Version | Text Only | Print | Product List | Glossary On
Versions: 1 2 3 4 5 6 7 8 9 10 11 12 13 14 15 16 17 18 19 20
000
FTUS44 KHGX 312325
TAFUTS
TAF
KUTS 312325Z 0100/0124 VRB04KT P6SM VCTS SCT040CB
      TEMPO 0100/0101 VRB15G25KT 5SM TSRA BR BKN025CB
     FM010200 VRB02KT P6SM SCT250
      TEMPO 0111/0113 4SM BR
     FM011500 01004KT P6SM SCT250=

USA.gov is the U.S. government's official web portal to all federal, state and local government web resources and services.